Time;durP1;ratioP1;P1;durP2;ratioP2;P2;SDS_P1;SDS_P2;PMS_P1;PMS_P2;Temp;Humidity;BMP_temperature;BMP_pressure;BME280_temperature;BME280_humidity;BME280_pressure;Samples;Min_cycle;Max_cycle;Signal;HPM_P1;HPM_P2
2022/07/02 00:01:30;;;;;;;3.13;2.93;;;26.00;95.20;;;;;;5103597;28;20452;-63
2022/07/02 00:04:04;;;;;;;3.60;3.30;;;26.10;94.70;;;;;;5113658;28;20454;-62
2022/07/02 00:06:38;;;;;;;3.40;3.10;;;26.20;95.00;;;;;;5117877;28;20527;-63
2022/07/02 00:09:09;;;;;;;4.37;3.00;;;26.10;95.30;;;;;;5111983;28;20440;-63
2022/07/02 00:11:42;;;;;;;3.63;3.33;;;26.00;95.20;;;;;;5091856;28;20495;-63
2022/07/02 00:14:13;;;;;;;3.10;2.80;;;26.00;95.20;;;;;;5124114;28;20467;-62
2022/07/02 00:16:47;;;;;;;3.17;2.90;;;26.00;94.90;;;;;;5122615;28;20607;-62
2022/07/02 00:19:18;;;;;;;3.10;2.90;;;26.00;94.90;;;;;;5108845;28;20487;-62
2022/07/02 00:21:50;;;;;;;3.20;3.00;;;26.00;95.40;;;;;;5107219;28;20453;-62
2022/07/02 00:24:21;;;;;;;2.80;2.60;;;26.10;95.20;;;;;;5123522;28;20504;-63
2022/07/02 00:26:58;;;;;;;3.47;3.17;;;26.00;95.20;;;;;;5123701;27;20465;-62
2022/07/02 00:29:35;;;;;;;3.10;2.90;;;26.00;94.60;;;;;;5107207;28;20463;-62
2022/07/02 00:32:09;;;;;;;3.00;2.80;;;25.80;95.40;;;;;;5115589;28;20518;-62
2022/07/02 00:34:43;;;;;;;2.83;2.57;;;25.80;95.60;;;;;;5117483;28;20874;-62
2022/07/02 00:37:15;;;;;;;3.30;3.10;;;25.80;95.60;;;;;;5122262;28;20455;-62
2022/07/02 00:39:45;;;;;;;2.90;2.70;;;25.80;94.80;;;;;;5086824;28;20436;-63
2022/07/02 00:42:17;;;;;;;3.33;3.10;;;25.60;95.70;;;;;;5097562;28;20445;-62
2022/07/02 00:44:49;;;;;;;2.80;2.60;;;25.60;95.70;;;;;;5095839;28;20448;-62
2022/07/02 00:47:23;;;;;;;3.20;3.00;;;25.70;95.80;;;;;;5104527;28;20449;-62
2022/07/02 00:49:53;;;;;;;3.10;2.90;;;25.90;95.80;;;;;;5118442;28;20447;-63
2022/07/02 00:52:24;;;;;;;2.70;2.50;;;25.90;95.00;;;;;;5102154;28;20457;-63
2022/07/02 00:54:55;;;;;;;3.43;3.23;;;25.80;95.50;;;;;;5108147;28;20437;-63
2022/07/02 00:57:26;;;;;;;3.00;2.80;;;25.80;95.40;;;;;;5123218;28;20498;-63
2022/07/02 00:59:57;;;;;;;3.77;3.47;;;25.80;94.40;;;;;;5102972;28;20463;-63
2022/07/02 01:02:32;;;;;;;3.23;2.93;;;25.70;95.10;;;;;;5108066;28;20454;-62
2022/07/02 01:05:03;;;;;;;5.00;4.60;;;25.60;95.00;;;;;;5100832;28;20466;-64
2022/07/02 01:07:35;;;;;;;4.20;3.90;;;25.60;95.50;;;;;;5102483;28;20459;-63
2022/07/02 01:10:19;;;;;;;3.87;3.57;;;25.70;95.20;;;;;;5108624;28;20444;-64
2022/07/02 01:12:50;;;;;;;6.43;4.93;;;25.60;94.90;;;;;;5110006;28;20444;-63
2022/07/02 01:15:21;;;;;;;8.80;7.90;;;25.50;95.20;;;;;;5102584;28;21093;-64
2022/07/02 01:17:54;;;;;;;8.77;7.50;;;25.50;95.80;;;;;;5108090;28;20505;-64
2022/07/02 01:20:25;;;;;;;6.57;5.77;;;25.40;95.50;;;;;;5121259;28;20449;-63
2022/07/02 01:22:58;;;;;;;9.53;8.70;;;25.40;95.80;;;;;;5109402;28;20471;-63
2022/07/02 01:25:29;;;;;;;2.90;2.70;;;25.40;95.50;;;;;;5102057;28;20440;-63
2022/07/02 01:28:00;;;;;;;3.60;3.30;;;25.40;95.30;;;;;;5118539;28;20439;-63
2022/07/02 01:30:31;;;;;;;5.43;5.03;;;25.30;95.20;;;;;;5106700;28;20451;-63
2022/07/02 01:33:02;;;;;;;5.73;5.20;;;25.20;95.60;;;;;;5112104;28;20488;-63
2022/07/02 01:35:32;;;;;;;2.90;2.70;;;25.00;96.50;;;;;;5101249;28;20454;-63
2022/07/02 01:38:05;;;;;;;2.43;2.23;;;25.00;95.80;;;;;;5113127;28;20495;-63
2022/07/02 01:40:36;;;;;;;2.60;2.40;;;25.00;95.80;;;;;;5101749;28;20461;-64
2022/07/02 01:43:07;;;;;;;3.10;2.80;;;25.00;96.20;;;;;;5099990;28;20959;-63
2022/07/02 01:45:38;;;;;;;2.63;2.43;;;24.90;96.30;;;;;;5102017;28;20555;-64
2022/07/02 01:48:09;;;;;;;3.10;2.90;;;25.00;96.20;;;;;;5113371;28;20506;-61
2022/07/02 01:50:40;;;;;;;3.00;2.70;;;24.90;95.90;;;;;;5121115;28;20455;-62
2022/07/02 01:53:12;;;;;;;2.73;2.53;;;24.80;96.00;;;;;;5119301;28;20514;-62
2022/07/02 01:55:43;;;;;;;2.50;2.40;;;24.70;95.70;;;;;;5111278;28;20912;-64
2022/07/02 01:58:14;;;;;;;3.17;2.70;;;24.60;96.00;;;;;;5102673;28;20484;-63
2022/07/02 02:00:45;;;;;;;3.07;2.87;;;24.60;96.10;;;;;;5107880;28;20450;-64
2022/07/02 02:03:15;;;;;;;2.40;2.20;;;24.60;96.60;;;;;;5109912;28;20453;-63
2022/07/02 02:05:46;;;;;;;2.73;2.53;;;24.50;96.10;;;;;;5118306;28;20515;-63
2022/07/02 02:08:19;;;;;;;3.00;2.30;;;24.40;96.20;;;;;;5103760;28;20465;-63
2022/07/02 02:10:50;;;;;;;2.20;2.10;;;24.40;96.20;;;;;;5115762;28;20520;-63
2022/07/02 02:13:20;;;;;;;2.07;1.97;;;24.40;95.50;;;;;;5119629;28;20446;-62
2022/07/02 02:15:53;;;;;;;1.93;1.83;;;24.30;95.30;;;;;;5101900;28;20459;-62
2022/07/02 02:18:24;;;;;;;2.60;2.40;;;24.30;94.80;;;;;;5103876;28;20488;-62
2022/07/02 02:20:55;;;;;;;2.87;2.60;;;24.20;95.00;;;;;;5100953;28;20460;-62
2022/07/02 02:23:27;;;;;;;2.77;2.20;;;24.10;95.40;;;;;;5101639;28;20585;-62
2022/07/02 02:25:58;;;;;;;2.73;2.53;;;24.00;94.80;;;;;;5101879;28;20441;-62
2022/07/02 02:28:29;;;;;;;2.47;2.30;;;23.90;95.00;;;;;;5097632;28;20909;-62
2022/07/02 02:30:59;;;;;;;2.30;2.10;;;23.90;94.80;;;;;;5103370;28;20559;-63
2022/07/02 02:33:30;;;;;;;2.30;2.13;;;23.80;95.40;;;;;;5104254;28;20481;-64
2022/07/02 02:36:01;;;;;;;3.30;3.10;;;23.80;95.30;;;;;;5101371;28;20446;-64
2022/07/02 02:38:36;;;;;;;2.50;2.30;;;23.70;95.10;;;;;;5101092;28;20832;-64
2022/07/02 02:41:07;;;;;;;2.60;2.43;;;23.60;95.50;;;;;;5105060;28;20472;-64
2022/07/02 02:43:39;;;;;;;2.67;2.47;;;23.50;95.80;;;;;;5089792;28;20561;-63
2022/07/02 02:46:10;;;;;;;2.57;2.37;;;23.40;96.70;;;;;;5116547;28;20449;-64
2022/07/02 02:48:41;;;;;;;2.87;2.60;;;23.30;97.10;;;;;;5103160;28;20462;-66
2022/07/02 02:51:14;;;;;;;3.00;2.80;;;23.20;97.30;;;;;;5101371;28;20458;-67
2022/07/02 02:53:51;;;;;;;4.10;2.90;;;23.10;97.70;;;;;;5104811;28;20458;-66
2022/07/02 02:56:23;;;;;;;2.50;2.30;;;23.00;97.90;;;;;;5105302;28;20459;-66
2022/07/02 02:58:54;;;;;;;3.63;3.33;;;22.90;98.40;;;;;;5103996;28;20482;-66
2022/07/02 03:01:25;;;;;;;3.00;2.77;;;22.70;98.80;;;;;;5102168;28;20660;-66
2022/07/02 03:03:58;;;;;;;3.00;2.80;;;22.70;98.80;;;;;;5105435;28;20486;-66
2022/07/02 03:06:29;;;;;;;3.00;2.80;;;22.60;99.30;;;;;;5109671;28;20438;-67
2022/07/02 03:09:02;;;;;;;3.00;2.80;;;22.50;99.50;;;;;;5104095;28;20461;-67
2022/07/02 03:11:33;;;;;;;2.97;2.77;;;22.50;99.60;;;;;;5104329;28;20469;-67
2022/07/02 03:14:04;;;;;;;3.30;3.00;;;22.40;99.80;;;;;;5111087;28;20743;-70
2022/07/02 03:16:34;;;;;;;2.83;2.63;;;22.40;99.80;;;;;;5122715;28;20462;-69
2022/07/02 03:19:05;;;;;;;3.33;2.47;;;22.40;99.90;;;;;;5115808;28;20475;-66
2022/07/02 03:21:36;;;;;;;3.10;2.90;;;22.30;99.90;;;;;;5103458;28;20469;-65
2022/07/02 03:24:09;;;;;;;3.73;3.33;;;22.30;99.90;;;;;;5108489;28;20462;-66
2022/07/02 03:26:40;;;;;;;4.83;2.70;;;22.20;99.90;;;;;;5109925;28;20460;-67
2022/07/02 03:29:10;;;;;;;3.20;2.50;;;22.20;99.90;;;;;;5115644;28;20450;-67
2022/07/02 03:31:41;;;;;;;2.57;2.37;;;22.10;99.90;;;;;;5112491;28;20462;-66
2022/07/02 03:34:12;;;;;;;3.10;2.90;;;22.10;99.90;;;;;;5110477;28;20492;-66
2022/07/02 03:36:43;;;;;;;3.10;2.90;;;21.90;99.90;;;;;;5104216;28;20455;-67
2022/07/02 03:39:15;;;;;;;2.70;2.50;;;21.80;99.90;;;;;;5105199;28;20482;-68
2022/07/02 03:41:46;;;;;;;2.60;2.10;;;21.80;99.90;;;;;;5102046;28;20557;-66
2022/07/02 03:44:17;;;;;;;2.57;2.37;;;21.70;99.90;;;;;;5108470;28;20553;-67
2022/07/02 03:46:48;;;;;;;2.93;2.67;;;21.60;99.90;;;;;;5114660;28;20458;-68
2022/07/02 03:49:19;;;;;;;2.70;2.50;;;21.50;99.90;;;;;;5105797;28;20473;-66
2022/07/02 03:51:50;;;;;;;3.03;2.77;;;21.40;99.90;;;;;;5092201;28;20463;-65
2022/07/02 03:54:22;;;;;;;2.53;2.40;;;21.40;99.90;;;;;;5110932;28;20464;-67
2022/07/02 03:56:53;;;;;;;2.40;2.20;;;21.30;99.90;;;;;;5108445;28;20426;-67
2022/07/02 03:59:24;;;;;;;3.03;2.73;;;21.20;99.90;;;;;;5102090;28;20494;-68
2022/07/02 04:01:55;;;;;;;2.80;2.60;;;21.10;99.90;;;;;;5109681;28;20451;-68
2022/07/02 04:04:26;;;;;;;2.27;2.07;;;20.90;99.90;;;;;;5110463;28;20547;-68
2022/07/02 04:06:56;;;;;;;3.10;2.47;;;20.80;99.90;;;;;;5105971;28;20458;-67
2022/07/02 04:09:29;;;;;;;2.60;2.40;;;20.70;99.90;;;;;;5117724;28;20466;-67
2022/07/02 04:12:00;;;;;;;3.17;2.87;;;20.60;99.90;;;;;;5108323;28;20453;-68
2022/07/02 04:14:30;;;;;;;2.83;2.63;;;20.50;99.90;;;;;;5110947;28;20457;-67
2022/07/02 04:17:01;;;;;;;3.37;2.90;;;20.40;99.90;;;;;;5102712;28;20493;-67
2022/07/02 04:19:32;;;;;;;2.70;2.50;;;20.30;99.90;;;;;;5096801;28;20497;-68
2022/07/02 04:22:03;;;;;;;2.90;2.57;;;20.20;99.90;;;;;;5119514;28;20428;-68
2022/07/02 04:24:35;;;;;;;2.50;2.30;;;20.20;99.90;;;;;;5116276;28;20767;-68
2022/07/02 04:27:07;;;;;;;3.17;2.87;;;20.00;99.90;;;;;;5117345;28;20489;-68
2022/07/02 04:29:38;;;;;;;2.67;2.47;;;19.90;99.90;;;;;;5102903;28;20445;-67
2022/07/02 04:32:09;;;;;;;3.10;2.80;;;19.80;99.90;;;;;;5105332;28;20490;-67
2022/07/02 04:34:40;;;;;;;2.93;2.67;;;19.70;99.90;;;;;;5105258;28;20466;-67
2022/07/02 04:37:12;;;;;;;2.50;2.30;;;19.70;99.90;;;;;;5122460;28;20442;-66
2022/07/02 04:39:44;;;;;;;2.40;2.23;;;19.60;99.90;;;;;;5105334;28;20450;-67
2022/07/02 04:42:16;;;;;;;2.63;2.30;;;19.50;99.90;;;;;;5104653;28;20479;-67
2022/07/02 04:44:46;;;;;;;2.63;2.43;;;19.40;99.90;;;;;;5103034;28;20466;-66
2022/07/02 04:47:18;;;;;;;2.27;2.07;;;19.40;99.90;;;;;;5100742;28;20485;-67
2022/07/02 04:49:48;;;;;;;2.60;2.40;;;19.30;99.90;;;;;;5103055;28;20458;-66
2022/07/02 04:52:19;;;;;;;2.40;2.20;;;19.10;99.90;;;;;;5105786;28;20433;-67
2022/07/02 04:54:53;;;;;;;2.70;2.23;;;19.00;99.90;;;;;;5108276;28;20425;-67
2022/07/02 04:57:24;;;;;;;2.73;2.53;;;19.00;99.90;;;;;;5100984;28;20463;-66
2022/07/02 04:59:55;;;;;;;2.57;2.37;;;18.90;99.90;;;;;;5113680;28;20493;-67
2022/07/02 05:02:25;;;;;;;2.60;2.40;;;18.80;99.90;;;;;;5102145;28;20435;-67
2022/07/02 05:04:56;;;;;;;2.30;2.10;;;18.80;99.90;;;;;;5095824;28;20459;-67
2022/07/02 05:07:27;;;;;;;2.60;2.40;;;18.70;99.90;;;;;;5106903;28;20541;-68
2022/07/02 05:10:01;;;;;;;2.30;2.20;;;18.70;99.90;;;;;;5105028;28;20466;-67
2022/07/02 05:12:32;;;;;;;2.30;2.10;;;18.60;99.90;;;;;;5103342;28;20556;-67
2022/07/02 05:15:02;;;;;;;2.33;2.13;;;18.50;99.90;;;;;;5103292;28;20499;-65
2022/07/02 05:17:33;;;;;;;2.53;2.33;;;18.50;99.90;;;;;;5101777;28;20508;-65
2022/07/02 05:20:05;;;;;;;2.83;2.03;;;18.40;99.90;;;;;;5101071;28;20451;-67
2022/07/02 05:22:42;;;;;;;2.13;1.93;;;18.30;99.90;;;;;;5116818;28;20872;-67
2022/07/02 05:25:16;;;;;;;2.13;1.93;;;18.20;99.90;;;;;;5109144;28;20436;-66
2022/07/02 05:27:46;;;;;;;2.27;2.07;;;18.20;99.90;;;;;;5118325;28;20676;-66
2022/07/02 05:30:17;;;;;;;2.27;2.07;;;18.10;99.90;;;;;;5103724;28;20463;-66
2022/07/02 05:32:49;;;;;;;3.13;2.27;;;18.10;99.90;;;;;;5102261;28;21017;-66
2022/07/02 05:35:20;;;;;;;2.20;2.00;;;18.00;99.90;;;;;;5113150;28;20512;-66
2022/07/02 05:37:51;;;;;;;2.47;2.27;;;17.90;99.90;;;;;;5104070;28;20454;-68
2022/07/02 05:40:23;;;;;;;2.30;1.97;;;17.90;99.90;;;;;;5116217;28;20937;-68
2022/07/02 05:42:54;;;;;;;2.17;1.97;;;17.90;99.90;;;;;;5103889;28;20469;-65
2022/07/02 05:45:25;;;;;;;2.27;2.07;;;17.70;99.90;;;;;;5109111;28;20438;-66
2022/07/02 05:47:55;;;;;;;2.17;1.97;;;17.80;99.90;;;;;;5107176;28;20466;-66
2022/07/02 05:50:27;;;;;;;2.17;1.97;;;17.70;99.90;;;;;;5100283;28;20467;-67
2022/07/02 05:52:57;;;;;;;1.90;1.67;;;17.70;99.90;;;;;;5102012;28;20458;-64
2022/07/02 05:55:30;;;;;;;2.00;1.70;;;17.60;99.90;;;;;;5106163;28;20503;-67
2022/07/02 05:58:01;;;;;;;2.13;1.83;;;17.60;99.90;;;;;;5102453;28;20585;-66
2022/07/02 06:00:32;;;;;;;3.13;2.20;;;17.50;99.90;;;;;;5103627;28;20496;-68
2022/07/02 06:03:03;;;;;;;2.10;1.80;;;17.50;99.90;;;;;;5110801;28;20542;-65
2022/07/02 06:08:21;;;;;;;1.80;1.70;;;17.30;99.90;;;;;;5103928;28;20450;-67
2022/07/02 06:10:54;;;;;;;2.10;2.00;;;17.30;99.90;;;;;;5111647;28;20441;-67
2022/07/02 06:13:25;;;;;;;2.47;1.67;;;17.30;99.90;;;;;;5120212;28;20958;-67
2022/07/02 06:15:56;;;;;;;2.03;1.90;;;17.20;99.90;;;;;;5105643;28;20963;-65
2022/07/02 06:18:27;;;;;;;2.00;1.70;;;17.10;99.90;;;;;;5106419;28;20518;-67
2022/07/02 06:20:58;;;;;;;1.63;1.50;;;17.10;99.90;;;;;;5105171;28;20494;-65
2022/07/02 06:23:28;;;;;;;2.00;1.60;;;17.10;99.90;;;;;;5102777;28;20451;-63
2022/07/02 06:26:01;;;;;;;2.17;1.97;;;17.00;99.90;;;;;;5110224;28;20542;-66
2022/07/02 06:28:32;;;;;;;2.10;1.90;;;17.00;99.90;;;;;;5102053;28;20463;-66
2022/07/02 06:31:03;;;;;;;1.80;1.70;;;16.90;99.90;;;;;;5106638;28;20450;-66
2022/07/02 06:33:35;;;;;;;2.07;1.87;;;16.90;99.90;;;;;;5107541;28;20562;-65
2022/07/02 06:36:07;;;;;;;2.00;1.80;;;16.80;99.90;;;;;;5104570;28;20460;-65
2022/07/02 06:38:39;;;;;;;2.20;1.83;;;16.80;99.90;;;;;;5105808;28;20465;-67
2022/07/02 06:43:59;;;;;;;2.07;1.90;;;16.70;99.90;;;;;;5099694;28;20450;-62
2022/07/02 06:46:30;;;;;;;1.40;1.30;;;16.60;99.90;;;;;;5107420;28;20473;-64
2022/07/02 06:49:01;;;;;;;1.60;1.50;;;16.50;99.90;;;;;;5100517;28;20466;-63
2022/07/02 06:51:32;;;;;;;2.07;1.97;;;16.50;99.90;;;;;;5104606;28;20440;-62
2022/07/02 06:54:02;;;;;;;1.87;1.70;;;16.50;99.90;;;;;;5115008;28;20471;-63
2022/07/02 06:56:36;;;;;;;1.97;1.73;;;16.40;99.90;;;;;;5106151;28;20446;-62
2022/07/02 06:59:08;;;;;;;1.50;1.40;;;16.30;99.90;;;;;;5109063;28;20909;-62
2022/07/02 07:01:39;;;;;;;1.83;1.73;;;16.30;99.90;;;;;;5117163;28;20486;-63
2022/07/02 07:04:30;;;;;;;2.90;2.10;;;16.30;99.90;;;;;;5107704;28;20947;-62
2022/07/02 07:07:04;;;;;;;1.60;1.50;;;16.20;99.90;;;;;;5103254;28;20848;-63
2022/07/02 07:09:35;;;;;;;2.07;1.90;;;16.20;99.90;;;;;;5103715;28;20462;-62
2022/07/02 07:12:09;;;;;;;1.90;1.80;;;16.10;99.90;;;;;;5104608;28;20779;-64
2022/07/02 07:14:41;;;;;;;1.80;1.70;;;16.10;99.90;;;;;;5110357;28;20450;-62
2022/07/02 07:17:12;;;;;;;1.80;1.70;;;16.10;99.90;;;;;;5087932;28;20443;-62
2022/07/02 07:19:43;;;;;;;1.73;1.63;;;16.00;99.90;;;;;;5105092;28;20452;-62
2022/07/02 07:22:14;;;;;;;1.90;1.73;;;15.90;99.90;;;;;;5105235;28;21023;-62
2022/07/02 07:24:45;;;;;;;1.60;1.50;;;15.90;99.90;;;;;;5106343;28;20440;-63
2022/07/02 07:27:18;;;;;;;1.93;1.73;;;15.80;99.90;;;;;;5098663;28;20447;-62
2022/07/02 07:29:48;;;;;;;1.83;1.73;;;15.80;99.90;;;;;;5109077;28;20466;-62
2022/07/02 07:32:19;;;;;;;1.67;1.57;;;15.80;99.90;;;;;;5112378;28;20545;-64
2022/07/02 07:34:50;;;;;;;1.83;1.63;;;15.70;99.90;;;;;;5110004;28;20462;-62
2022/07/02 07:37:21;;;;;;;2.50;2.30;;;15.70;99.90;;;;;;5102053;28;20459;-62
2022/07/02 07:39:51;;;;;;;2.03;1.83;;;15.70;99.90;;;;;;5111675;28;20473;-63
2022/07/02 07:42:25;;;;;;;1.80;1.57;;;15.70;99.90;;;;;;5101663;28;20496;-62
2022/07/02 07:44:56;;;;;;;2.40;2.20;;;15.50;99.90;;;;;;5106789;28;20454;-62
2022/07/02 07:47:27;;;;;;;1.60;1.50;;;15.60;99.90;;;;;;5109899;28;20470;-62
2022/07/02 07:49:57;;;;;;;1.70;1.60;;;15.50;99.90;;;;;;5105943;28;20458;-62
2022/07/02 07:52:28;;;;;;;2.23;2.03;;;15.50;99.90;;;;;;5110892;28;20463;-63
2022/07/02 07:54:59;;;;;;;1.73;1.60;;;15.40;99.90;;;;;;5108798;28;20453;-62
2022/07/02 07:57:36;;;;;;;2.03;1.93;;;15.40;99.90;;;;;;5103608;28;20466;-62
2022/07/02 08:00:09;;;;;;;3.33;1.83;;;15.40;99.90;;;;;;5096149;28;20470;-62
2022/07/02 08:02:39;;;;;;;4.07;1.83;;;15.30;99.90;;;;;;5105226;28;20597;-62
2022/07/02 08:05:11;;;;;;;1.70;1.60;;;15.30;99.90;;;;;;5107880;28;20522;-62
2022/07/02 08:07:43;;;;;;;2.43;1.97;;;15.20;99.90;;;;;;5108432;28;20466;-62
2022/07/02 08:10:17;;;;;;;2.10;1.90;;;15.20;99.90;;;;;;5120775;28;20461;-62
2022/07/02 08:12:50;;;;;;;1.90;1.80;;;15.20;99.90;;;;;;5107999;28;20530;-62
2022/07/02 08:15:21;;;;;;;2.10;1.90;;;15.20;99.90;;;;;;5116040;28;20470;-62
2022/07/02 08:17:51;;;;;;;2.47;2.27;;;15.10;99.90;;;;;;5120928;28;20465;-63
2022/07/02 08:20:23;;;;;;;1.70;1.60;;;15.10;99.90;;;;;;5116408;28;20473;-63
2022/07/02 08:22:53;;;;;;;1.73;1.60;;;15.00;99.90;;;;;;5106408;28;20490;-62
2022/07/02 08:25:24;;;;;;;1.77;1.67;;;15.00;99.90;;;;;;5108146;28;20450;-63
2022/07/02 08:27:56;;;;;;;2.50;1.83;;;15.10;99.90;;;;;;5106836;28;20459;-63
2022/07/02 08:30:27;;;;;;;3.10;1.73;;;15.00;99.90;;;;;;5118706;28;20488;-63
2022/07/02 08:32:58;;;;;;;1.90;1.70;;;15.00;99.90;;;;;;5113453;28;20481;-63
2022/07/02 08:35:29;;;;;;;2.13;1.80;;;15.00;99.90;;;;;;5117178;28;20521;-63
2022/07/02 08:38:00;;;;;;;1.70;1.60;;;15.00;99.90;;;;;;5103329;28;20467;-63
2022/07/02 08:40:33;;;;;;;2.07;1.87;;;15.00;99.90;;;;;;5117248;28;20457;-63
2022/07/02 08:43:07;;;;;;;1.60;1.50;;;15.00;99.90;;;;;;5102035;28;20486;-63
2022/07/02 08:45:41;;;;;;;1.87;1.60;;;15.00;99.90;;;;;;5112985;28;20524;-63
2022/07/02 08:48:12;;;;;;;1.83;1.70;;;15.10;99.90;;;;;;5105616;28;20454;-63
2022/07/02 08:50:43;;;;;;;2.60;2.40;;;15.20;99.90;;;;;;5105776;28;20805;-63
2022/07/02 08:53:14;;;;;;;2.03;1.83;;;15.20;99.90;;;;;;5108837;28;20477;-63
2022/07/02 08:55:47;;;;;;;2.97;1.80;;;15.30;99.90;;;;;;5120556;28;20458;-63
2022/07/02 08:58:20;;;;;;;1.97;1.80;;;15.40;99.90;;;;;;5114803;28;20457;-62
2022/07/02 09:00:51;;;;;;;5.13;2.10;;;15.40;99.90;;;;;;5107072;28;20464;-63
2022/07/02 09:03:23;;;;;;;3.27;2.47;;;15.50;99.90;;;;;;5105469;28;20576;-62
2022/07/02 09:05:54;;;;;;;2.93;2.37;;;15.50;99.90;;;;;;5108135;28;20458;-62
2022/07/02 09:08:25;;;;;;;2.50;2.30;;;15.50;99.90;;;;;;5108670;28;20453;-63
2022/07/02 09:10:57;;;;;;;2.57;2.27;;;15.60;99.90;;;;;;5108234;28;20556;-63
2022/07/02 09:13:31;;;;;;;3.40;2.70;;;15.60;99.90;;;;;;5099498;28;20454;-62
2022/07/02 09:16:02;;;;;;;3.23;2.77;;;15.60;99.90;;;;;;5109819;28;20466;-62
2022/07/02 09:18:33;;;;;;;3.23;2.90;;;15.60;99.90;;;;;;5108801;28;20473;-63
2022/07/02 09:21:09;;;;;;;3.50;2.77;;;15.70;99.90;;;;;;5095981;28;20465;-62
2022/07/02 09:23:47;;;;;;;3.27;2.97;;;15.60;99.90;;;;;;5106415;28;20486;-63
2022/07/02 09:26:26;;;;;;;3.13;2.50;;;15.60;99.90;;;;;;5094854;28;20454;-63
2022/07/02 09:29:01;;;;;;;2.57;2.37;;;15.60;99.90;;;;;;5112443;28;20468;-62
2022/07/02 09:31:32;;;;;;;3.07;2.80;;;15.60;99.90;;;;;;5106219;28;20467;-62
2022/07/02 09:34:03;;;;;;;2.40;2.03;;;15.60;99.90;;;;;;5111362;28;20608;-62
2022/07/02 09:36:37;;;;;;;2.43;2.23;;;15.60;99.90;;;;;;5112711;28;20465;-63
2022/07/02 09:39:08;;;;;;;1.97;1.87;;;15.60;99.90;;;;;;5108557;28;20987;-62
2022/07/02 09:41:45;;;;;;;3.27;2.37;;;15.70;99.90;;;;;;5115884;28;20461;-63
2022/07/02 09:44:17;;;;;;;2.83;2.23;;;15.70;99.90;;;;;;5093837;28;20501;-62
2022/07/02 09:46:48;;;;;;;2.60;2.03;;;15.70;99.90;;;;;;5109336;28;20458;-62
2022/07/02 09:49:19;;;;;;;3.33;2.30;;;15.70;99.90;;;;;;5104607;28;20458;-62
2022/07/02 09:51:51;;;;;;;2.17;1.97;;;15.70;99.90;;;;;;5119392;28;20472;-63
2022/07/02 09:54:23;;;;;;;2.20;1.73;;;15.60;99.90;;;;;;5099106;28;20456;-62
2022/07/02 09:56:55;;;;;;;2.20;1.80;;;15.70;99.90;;;;;;5104844;28;20458;-63
2022/07/02 09:59:27;;;;;;;2.07;1.97;;;15.70;99.90;;;;;;5108839;28;20463;-63
2022/07/02 10:01:58;;;;;;;2.13;1.93;;;15.70;99.90;;;;;;5112072;28;20457;-62
2022/07/02 10:04:30;;;;;;;2.23;2.00;;;15.80;99.90;;;;;;5104585;28;20517;-63
2022/07/02 10:07:00;;;;;;;2.57;2.10;;;15.80;99.90;;;;;;5112012;28;20501;-63
2022/07/02 10:09:32;;;;;;;2.40;2.10;;;15.80;99.90;;;;;;5114846;28;21167;-63
2022/07/02 10:12:03;;;;;;;2.07;1.87;;;15.80;99.90;;;;;;5102002;28;20469;-63
2022/07/02 10:14:38;;;;;;;1.90;1.70;;;15.80;99.90;;;;;;5105178;28;20462;-63
2022/07/02 10:17:11;;;;;;;3.20;2.30;;;15.80;99.90;;;;;;5108033;28;20576;-62
2022/07/02 10:19:42;;;;;;;2.10;1.90;;;15.70;99.90;;;;;;5115623;28;20471;-63
2022/07/02 10:22:13;;;;;;;2.57;2.30;;;15.70;99.90;;;;;;5104642;28;20458;-62
2022/07/02 10:24:44;;;;;;;2.20;1.93;;;15.70;99.90;;;;;;5104994;28;20494;-63
2022/07/02 10:27:16;;;;;;;2.43;2.23;;;15.80;99.90;;;;;;5113288;28;20649;-63
2022/07/02 10:29:49;;;;;;;2.57;2.33;;;15.80;99.90;;;;;;5104398;28;20458;-63
2022/07/02 10:32:29;;;;;;;1.87;1.70;;;15.80;99.90;;;;;;5115782;28;20481;-63
2022/07/02 10:35:10;;;;;;;2.13;1.80;;;15.90;99.90;;;;;;5111415;28;20908;-62
2022/07/02 10:37:41;;;;;;;2.03;1.90;;;15.80;99.90;;;;;;5116167;28;20484;-62
2022/07/02 10:40:17;;;;;;;2.07;1.87;;;15.80;99.90;;;;;;5101670;28;20462;-63
2022/07/02 10:42:50;;;;;;;2.57;2.07;;;15.80;99.90;;;;;;5095864;28;21895;-63
2022/07/02 10:45:23;;;;;;;3.33;2.73;;;15.80;99.90;;;;;;5109933;28;20457;-63
2022/07/02 10:47:55;;;;;;;2.80;2.50;;;15.90;99.90;;;;;;5105252;28;20446;-63
2022/07/02 10:50:41;;;;;;;2.40;2.20;;;15.90;99.90;;;;;;5112061;28;20472;-62
2022/07/02 10:53:13;;;;;;;3.53;2.67;;;15.90;99.90;;;;;;5106466;28;20522;-63
2022/07/02 10:55:45;;;;;;;1.97;1.87;;;15.90;99.90;;;;;;5104349;28;20561;-62
2022/07/02 10:58:23;;;;;;;3.30;1.90;;;15.90;99.90;;;;;;5105880;28;20465;-62
2022/07/02 11:00:56;;;;;;;3.00;2.30;;;15.90;99.90;;;;;;5110675;28;20454;-63
2022/07/02 11:03:28;;;;;;;2.73;2.10;;;16.00;99.90;;;;;;5113449;28;20463;-62
2022/07/02 11:06:01;;;;;;;2.40;2.20;;;16.00;99.90;;;;;;5104196;28;20469;-62
2022/07/02 11:08:53;;;;;;;3.70;2.33;;;16.00;99.90;;;;;;5107184;28;20466;-63
2022/07/02 11:11:45;;;;;;;2.20;2.00;;;15.90;99.90;;;;;;5105205;28;20490;-62
2022/07/02 11:14:17;;;;;;;3.00;2.60;;;15.90;99.90;;;;;;5087229;28;20485;-62
2022/07/02 11:16:51;;;;;;;4.33;2.17;;;15.90;99.90;;;;;;5108985;28;20462;-62
2022/07/02 11:19:24;;;;;;;3.60;2.67;;;15.90;99.90;;;;;;5105904;28;20490;-62
2022/07/02 11:21:57;;;;;;;4.17;2.30;;;15.90;99.90;;;;;;5118555;28;20839;-63
2022/07/02 11:24:29;;;;;;;2.60;2.40;;;15.90;99.90;;;;;;5088957;28;20494;-63
2022/07/02 11:27:01;;;;;;;3.30;3.00;;;15.90;99.90;;;;;;5112285;28;20450;-62
2022/07/02 11:29:32;;;;;;;3.27;2.50;;;16.00;99.90;;;;;;5109033;28;20476;-62
2022/07/02 11:32:04;;;;;;;2.60;2.27;;;15.90;99.90;;;;;;5104485;28;20470;-62
2022/07/02 11:34:35;;;;;;;4.03;3.23;;;15.90;99.90;;;;;;5111142;28;20489;-63
2022/07/02 11:37:07;;;;;;;3.37;2.37;;;15.90;99.90;;;;;;5106228;28;20458;-63
2022/07/02 11:39:37;;;;;;;3.60;2.70;;;15.90;99.90;;;;;;5114007;28;20491;-62
2022/07/02 11:42:08;;;;;;;3.00;2.70;;;15.90;99.90;;;;;;5112501;28;20463;-63
2022/07/02 11:44:39;;;;;;;4.00;3.43;;;16.00;99.90;;;;;;5102489;28;20516;-63
2022/07/02 11:47:12;;;;;;;2.57;2.37;;;16.00;99.90;;;;;;5112874;28;20458;-63
2022/07/02 11:49:43;;;;;;;4.27;3.40;;;16.00;99.90;;;;;;5097125;28;20528;-62
2022/07/02 11:52:14;;;;;;;2.87;2.40;;;15.90;99.90;;;;;;5115017;28;20446;-64
2022/07/02 11:54:45;;;;;;;3.23;2.80;;;15.90;99.90;;;;;;5104508;28;20468;-62
2022/07/02 11:57:15;;;;;;;3.30;2.80;;;15.90;99.90;;;;;;5108385;28;20470;-62
2022/07/02 11:59:53;;;;;;;3.83;2.97;;;15.80;99.90;;;;;;5104232;28;20477;-62
2022/07/02 12:02:25;;;;;;;3.23;2.70;;;15.80;99.90;;;;;;5111748;28;20465;-62
2022/07/02 12:04:56;;;;;;;4.00;2.77;;;15.90;99.90;;;;;;5106488;28;20493;-62
2022/07/02 12:07:27;;;;;;;4.40;3.47;;;15.80;99.90;;;;;;5107347;28;20461;-62
2022/07/02 12:09:58;;;;;;;4.07;2.63;;;15.80;99.90;;;;;;5112077;28;20790;-63
2022/07/02 12:12:28;;;;;;;3.73;3.30;;;15.80;99.90;;;;;;5101792;28;20556;-62
2022/07/02 12:14:59;;;;;;;4.43;3.57;;;15.80;99.90;;;;;;5110946;28;20457;-63
2022/07/02 12:17:32;;;;;;;4.27;3.10;;;15.80;99.90;;;;;;5105877;28;20474;-62
2022/07/02 12:20:02;;;;;;;3.33;2.93;;;15.70;99.90;;;;;;5101207;28;20468;-62
2022/07/02 12:22:34;;;;;;;5.50;4.67;;;15.70;99.90;;;;;;5093587;28;20462;-63
2022/07/02 12:25:06;;;;;;;3.30;3.00;;;15.70;99.90;;;;;;5107298;28;20478;-63
2022/07/02 12:27:37;;;;;;;3.90;3.10;;;15.80;99.90;;;;;;5113547;28;20450;-62
2022/07/02 12:30:13;;;;;;;3.30;3.00;;;15.70;99.90;;;;;;5100881;28;20542;-62
2022/07/02 12:32:54;;;;;;;3.87;2.80;;;15.70;99.90;;;;;;5109955;28;20481;-62
2022/07/02 12:35:25;;;;;;;3.93;3.43;;;15.60;99.90;;;;;;5111930;28;20473;-62
2022/07/02 12:37:59;;;;;;;3.07;2.73;;;15.60;99.90;;;;;;5105764;28;20426;-62
2022/07/02 12:40:30;;;;;;;3.83;3.40;;;15.60;99.90;;;;;;5109551;28;20458;-62
2022/07/02 12:43:02;;;;;;;3.80;2.93;;;15.60;99.90;;;;;;5105732;28;20473;-62
2022/07/02 12:45:34;;;;;;;3.67;3.30;;;15.60;99.90;;;;;;5103831;28;20493;-62
2022/07/02 12:48:08;;;;;;;3.33;2.80;;;15.60;99.90;;;;;;5115707;28;20457;-63
2022/07/02 12:50:40;;;;;;;4.47;3.20;;;15.60;99.90;;;;;;5101716;28;20465;-62
2022/07/02 12:53:12;;;;;;;4.10;3.57;;;15.70;99.90;;;;;;5111119;28;20445;-63
2022/07/02 12:55:46;;;;;;;3.83;3.40;;;15.60;99.90;;;;;;5114480;28;20443;-62
2022/07/02 12:58:18;;;;;;;3.90;3.47;;;15.60;99.90;;;;;;5113301;28;21234;-62
2022/07/02 13:00:49;;;;;;;3.87;3.10;;;15.70;99.90;;;;;;5113671;28;20458;-62
2022/07/02 13:03:22;;;;;;;4.53;3.57;;;15.70;99.90;;;;;;5106555;28;20462;-63
2022/07/02 13:05:55;;;;;;;3.70;2.90;;;15.70;99.90;;;;;;5113304;28;20481;-64
2022/07/02 13:08:26;;;;;;;3.87;3.10;;;15.70;99.90;;;;;;5110465;28;20465;-64
2022/07/02 13:10:58;;;;;;;4.27;3.87;;;15.70;99.90;;;;;;5119431;28;20430;-62
2022/07/02 13:13:29;;;;;;;5.30;4.03;;;15.60;99.90;;;;;;5106886;28;20462;-62
2022/07/02 13:16:06;;;;;;;4.30;3.57;;;15.70;99.90;;;;;;5103845;28;20469;-62
2022/07/02 13:18:38;;;;;;;4.43;3.17;;;15.70;99.90;;;;;;5104369;28;20567;-62